Time;durP1;ratioP1;P1;durP2;ratioP2;P2;SDS_P1;SDS_P2;PMS_P1;PMS_P2;Temp;Humidity;BMP_temperature;BMP_pressure;BME280_temperature;BME280_humidity;BME280_pressure;Samples;Min_cycle;Max_cycle;Signal;HPM_P1;HPM_P2
2022/10/20 00:01:43;;;;;;;2.93;2.50;;;;;;;;;;5028271;28;20331;-56
2022/10/20 00:04:09;;;;;;;2.80;2.60;;;;;;;;;;5029973;28;20247;-52
2022/10/20 00:06:35;;;;;;;2.90;2.60;;;;;;;;;;5029058;28;20223;-53
2022/10/20 00:09:03;;;;;;;2.73;2.40;;;;;;;;;;5030028;28;20294;-52
2022/10/20 00:11:30;;;;;;;2.30;2.10;;;;;;;;;;5012690;28;20581;-55
2022/10/20 00:13:58;;;;;;;3.17;2.50;;;;;;;;;;5030011;28;20513;-51
2022/10/20 00:16:26;;;;;;;3.00;2.50;;;;;;;;;;5026379;28;20294;-54
2022/10/20 00:18:55;;;;;;;2.50;2.20;;;;;;;;;;5029640;28;20200;-56
2022/10/20 00:21:25;;;;;;;2.73;2.10;;;;;;;;;;5029577;28;20759;-52
2022/10/20 00:23:51;;;;;;;2.60;2.37;;;;;;;;;;5027405;28;20429;-56
2022/10/20 00:26:20;;;;;;;4.73;2.80;;;;;;;;;;5024313;28;20742;-55
2022/10/20 00:28:46;;;;;;;3.57;2.50;;;;;;;;;;5030067;28;20287;-54
2022/10/20 00:31:14;;;;;;;2.20;2.00;;;;;;;;;;5026997;28;20282;-52
2022/10/20 00:33:40;;;;;;;3.13;2.50;;;;;;;;;;5029599;28;20716;-57
2022/10/20 00:36:10;;;;;;;2.60;2.30;;;;;;;;;;5029812;28;20320;-54
2022/10/20 00:38:36;;;;;;;2.87;2.53;;;;;;;;;;5029997;28;20223;-53
2022/10/20 00:41:03;;;;;;;3.37;2.30;;;;;;;;;;5028881;28;20654;-53
2022/10/20 00:43:42;;;;;;;3.00;2.20;;;;;;;;;;5029320;28;20310;-55
2022/10/20 00:46:11;;;;;;;3.23;2.37;;;;;;;;;;5029688;28;20282;-55
2022/10/20 00:48:38;;;;;;;2.67;2.30;;;;;;;;;;5009228;28;20294;-53
2022/10/20 00:51:04;;;;;;;2.60;2.20;;;;;;;;;;5016397;28;20286;-53
2022/10/20 00:53:31;;;;;;;3.00;2.33;;;;;;;;;;5036682;28;20298;-55
2022/10/20 00:55:58;;;;;;;3.23;2.50;;;;;;;;;;5036189;28;20294;-54
2022/10/20 00:58:25;;;;;;;2.43;2.07;;;;;;;;;;5036053;28;20282;-52
2022/10/20 01:00:56;;;;;;;2.77;2.47;;;;;;;;;;5034160;28;20226;-57
2022/10/20 01:03:27;;;;;;;2.47;2.27;;;;;;;;;;5013320;28;20318;-53
2022/10/20 01:05:53;;;;;;;2.70;2.27;;;;;;;;;;5036343;28;20302;-52
2022/10/20 01:08:19;;;;;;;2.50;2.30;;;;;;;;;;5036169;28;20290;-51
2022/10/20 01:11:05;;;;;;;2.50;2.30;;;;;;;;;;5033351;28;20274;-53
2022/10/20 01:13:41;;;;;;;2.70;2.47;;;;;;;;;;5014653;28;20309;-52
2022/10/20 01:16:20;;;;;;;2.40;2.10;;;;;;;;;;5020392;28;20761;-52
2022/10/20 01:19:06;;;;;;;2.80;2.33;;;;;;;;;;5016678;28;20286;-56
2022/10/20 01:21:49;;;;;;;2.67;2.47;;;;;;;;;;5014536;28;20278;-56
2022/10/20 01:24:28;;;;;;;3.00;2.27;;;;;;;;;;5018444;28;20297;-52
2022/10/20 01:27:18;;;;;;;2.93;2.40;;;;;;;;;;5034999;28;20640;-52
2022/10/20 01:30:08;;;;;;;2.97;2.30;;;;;;;;;;5016279;28;20636;-52
2022/10/20 01:32:59;;;;;;;2.47;1.97;;;;;;;;;;5014358;28;20590;-53
2022/10/20 01:35:48;;;;;;;3.03;2.30;;;;;;;;;;5035435;28;20730;-56
2022/10/20 01:38:58;;;;;;;4.40;3.03;;;;;;;;;;5018259;28;20223;-52
2022/10/20 01:41:36;;;;;;;3.67;2.50;;;;;;;;;;5020428;28;20640;-52
2022/10/20 01:44:04;;;;;;;3.43;2.43;;;;;;;;;;5017152;28;20223;-53
2022/10/20 01:46:31;;;;;;;2.90;2.60;;;;;;;;;;5014472;28;20290;-52
2022/10/20 01:48:59;;;;;;;2.80;2.53;;;;;;;;;;5018163;28;20233;-53
2022/10/20 01:51:25;;;;;;;3.07;2.20;;;;;;;;;;5016899;28;20282;-53
2022/10/20 01:53:51;;;;;;;2.83;2.50;;;;;;;;;;5027660;28;20297;-55
2022/10/20 01:56:26;;;;;;;3.30;2.50;;;;;;;;;;5034065;28;20382;-53
2022/10/20 01:59:19;;;;;;;3.17;2.63;;;;;;;;;;5017934;28;20234;-52
2022/10/20 02:01:57;;;;;;;2.73;2.30;;;;;;;;;;5012170;28;20754;-56
2022/10/20 02:04:32;;;;;;;3.10;2.30;;;;;;;;;;5030796;28;20302;-55
2022/10/20 02:07:10;;;;;;;3.73;2.63;;;;;;;;;;5012659;28;20302;-56
2022/10/20 02:09:41;;;;;;;2.30;2.10;;;;;;;;;;5026301;28;20235;-52
2022/10/20 02:12:12;;;;;;;3.07;2.20;;;;;;;;;;5014400;28;20224;-52
2022/10/20 02:14:39;;;;;;;2.97;2.57;;;;;;;;;;5010979;28;20640;-52
2022/10/20 02:17:09;;;;;;;2.87;2.33;;;;;;;;;;5014896;28;20222;-52
2022/10/20 02:19:40;;;;;;;2.53;2.10;;;;;;;;;;5014841;28;20274;-56
2022/10/20 02:22:08;;;;;;;2.63;2.30;;;;;;;;;;5014407;28;20306;-56
2022/10/20 02:24:37;;;;;;;2.90;2.60;;;;;;;;;;5011589;28;20306;-51
2022/10/20 02:27:31;;;;;;;2.80;2.03;;;;;;;;;;5030260;28;20291;-51
2022/10/20 02:30:05;;;;;;;2.57;2.27;;;;;;;;;;5005061;28;20202;-52
2022/10/20 02:32:33;;;;;;;2.93;2.30;;;;;;;;;;5031195;28;20219;-52
2022/10/20 02:35:03;;;;;;;3.83;2.50;;;;;;;;;;5014402;28;20254;-51
2022/10/20 02:37:32;;;;;;;3.00;2.40;;;;;;;;;;5032164;28;20195;-52
2022/10/20 02:39:59;;;;;;;2.77;2.37;;;;;;;;;;5029375;28;20207;-53
2022/10/20 02:42:25;;;;;;;2.83;2.20;;;;;;;;;;5031467;28;20216;-53
2022/10/20 02:44:52;;;;;;;3.70;2.40;;;;;;;;;;5032363;28;20306;-55
2022/10/20 02:47:19;;;;;;;2.40;1.90;;;;;;;;;;5029792;28;20693;-52
2022/10/20 02:49:46;;;;;;;3.00;2.70;;;;;;;;;;5031812;28;20690;-52
2022/10/20 02:52:12;;;;;;;2.83;2.10;;;;;;;;;;5031507;28;20307;-52
2022/10/20 02:54:39;;;;;;;5.47;2.73;;;;;;;;;;5034157;28;20275;-53
2022/10/20 02:57:05;;;;;;;2.40;2.20;;;;;;;;;;5030576;28;20203;-52
2022/10/20 02:59:32;;;;;;;3.10;2.53;;;;;;;;;;5031696;28;20754;-56
2022/10/20 03:01:58;;;;;;;3.17;2.33;;;;;;;;;;5031968;28;20302;-52
2022/10/20 03:04:25;;;;;;;2.50;2.13;;;;;;;;;;5031238;28;20212;-55
2022/10/20 03:06:56;;;;;;;3.23;2.40;;;;;;;;;;5030617;28;20203;-55
2022/10/20 03:09:22;;;;;;;2.73;2.37;;;;;;;;;;5027893;28;20346;-53
2022/10/20 03:11:48;;;;;;;2.77;2.37;;;;;;;;;;5029883;28;20635;-56
2022/10/20 03:14:15;;;;;;;2.80;2.50;;;;;;;;;;5031205;28;20286;-52
2022/10/20 03:16:41;;;;;;;2.50;2.30;;;;;;;;;;5029694;28;20293;-51
2022/10/20 03:19:07;;;;;;;2.57;2.37;;;;;;;;;;5031021;28;20295;-53
2022/10/20 03:21:37;;;;;;;3.00;2.40;;;;;;;;;;5029507;28;20211;-54
2022/10/20 03:24:03;;;;;;;3.03;2.53;;;;;;;;;;5029614;28;20306;-55
2022/10/20 03:26:29;;;;;;;2.50;2.27;;;;;;;;;;5029127;28;20227;-51
2022/10/20 03:28:56;;;;;;;2.40;2.20;;;;;;;;;;5030388;28;20282;-52
2022/10/20 03:31:22;;;;;;;2.20;2.00;;;;;;;;;;5029869;28;20195;-52
2022/10/20 03:33:48;;;;;;;3.07;2.60;;;;;;;;;;5029092;28;20200;-54
2022/10/20 03:36:15;;;;;;;2.70;2.30;;;;;;;;;;5028204;28;20282;-54
2022/10/20 03:38:42;;;;;;;3.27;2.60;;;;;;;;;;5030475;28;20648;-52
2022/10/20 03:41:08;;;;;;;3.23;2.73;;;;;;;;;;5029026;28;20199;-52
2022/10/20 03:43:35;;;;;;;2.77;2.40;;;;;;;;;;5029689;28;20774;-54
2022/10/20 03:46:03;;;;;;;3.07;2.60;;;;;;;;;;5027485;28;20311;-52
2022/10/20 03:48:29;;;;;;;3.00;2.70;;;;;;;;;;5030863;28;20226;-52
2022/10/20 03:50:56;;;;;;;3.20;2.63;;;;;;;;;;5029223;28;20704;-55
2022/10/20 03:53:22;;;;;;;2.97;2.50;;;;;;;;;;5026920;28;20679;-52
2022/10/20 03:55:48;;;;;;;3.83;2.43;;;;;;;;;;5031314;28;20299;-53
2022/10/20 03:58:15;;;;;;;2.40;2.10;;;;;;;;;;5030654;28;20731;-53
2022/10/20 04:00:41;;;;;;;2.60;2.30;;;;;;;;;;5026235;28;20289;-56
2022/10/20 04:03:08;;;;;;;3.17;2.50;;;;;;;;;;5030577;28;20254;-54
2022/10/20 04:05:34;;;;;;;2.83;2.33;;;;;;;;;;5030290;28;20309;-53
2022/10/20 04:08:00;;;;;;;2.30;2.10;;;;;;;;;;5028457;28;20206;-54
2022/10/20 04:10:26;;;;;;;2.43;2.20;;;;;;;;;;5025756;28;20200;-52
2022/10/20 04:12:57;;;;;;;3.20;2.87;;;;;;;;;;5026328;28;20596;-55
2022/10/20 04:15:23;;;;;;;2.90;2.50;;;;;;;;;;5028630;28;20318;-55
2022/10/20 04:17:49;;;;;;;3.07;2.50;;;;;;;;;;5031018;28;20282;-54
2022/10/20 04:20:16;;;;;;;4.93;3.03;;;;;;;;;;5025670;28;20287;-54
2022/10/20 04:22:42;;;;;;;6.70;3.53;;;;;;;;;;5029654;28;20223;-54
2022/10/20 04:25:11;;;;;;;3.97;2.80;;;;;;;;;;5028323;28;20458;-52
2022/10/20 04:27:38;;;;;;;3.20;2.57;;;;;;;;;;5030284;28;20298;-54
2022/10/20 04:30:05;;;;;;;3.50;3.00;;;;;;;;;;5024976;28;20206;-55
2022/10/20 04:32:31;;;;;;;2.90;2.57;;;;;;;;;;5030537;28;20318;-53
2022/10/20 04:34:58;;;;;;;3.57;2.37;;;;;;;;;;5027370;28;20287;-54
2022/10/20 04:37:24;;;;;;;3.90;3.10;;;;;;;;;;5026051;28;20282;-54
2022/10/20 04:39:51;;;;;;;3.50;2.80;;;;;;;;;;5029808;28;20302;-54
2022/10/20 04:42:18;;;;;;;4.17;3.47;;;;;;;;;;5010249;28;20227;-52
2022/10/20 04:44:44;;;;;;;4.10;3.10;;;;;;;;;;5028491;28;20314;-52
2022/10/20 04:47:11;;;;;;;3.57;2.90;;;;;;;;;;5025735;28;20206;-56
2022/10/20 04:49:39;;;;;;;4.10;2.80;;;;;;;;;;5028544;28;20616;-53
2022/10/20 04:52:05;;;;;;;3.20;2.87;;;;;;;;;;5028019;28;20331;-51
2022/10/20 04:54:32;;;;;;;3.37;2.70;;;;;;;;;;5032064;28;20279;-55
2022/10/20 04:56:58;;;;;;;2.83;2.40;;;;;;;;;;5027019;28;20308;-52
2022/10/20 04:59:24;;;;;;;4.07;2.70;;;;;;;;;;5029483;28;20232;-54
2022/10/20 05:01:51;;;;;;;3.10;2.50;;;;;;;;;;5028077;28;20243;-52
2022/10/20 05:04:20;;;;;;;3.00;2.60;;;;;;;;;;5025316;28;20302;-54
2022/10/20 05:06:47;;;;;;;3.67;2.83;;;;;;;;;;5027886;28;20241;-54
2022/10/20 05:09:14;;;;;;;3.30;2.40;;;;;;;;;;5028260;28;20298;-55
2022/10/20 05:11:41;;;;;;;3.20;2.57;;;;;;;;;;5023905;28;20216;-52
2022/10/20 05:14:07;;;;;;;2.87;2.47;;;;;;;;;;5027844;28;20290;-54
2022/10/20 05:16:34;;;;;;;7.37;4.70;;;;;;;;;;5026831;28;20278;-56
2022/10/20 05:19:00;;;;;;;3.00;2.63;;;;;;;;;;5029224;28;20282;-54
2022/10/20 05:21:28;;;;;;;4.73;3.07;;;;;;;;;;5022620;28;20199;-53
2022/10/20 05:24:03;;;;;;;5.90;3.60;;;;;;;;;;5026850;28;20286;-52
2022/10/20 05:26:33;;;;;;;5.07;3.67;;;;;;;;;;5024840;28;20346;-56
2022/10/20 05:29:01;;;;;;;5.87;4.70;;;;;;;;;;5025533;28;20655;-53
2022/10/20 05:31:27;;;;;;;2.77;2.47;;;;;;;;;;5024812;28;20254;-52
2022/10/20 05:33:55;;;;;;;7.13;5.07;;;;;;;;;;5028217;28;20195;-55
2022/10/20 05:36:24;;;;;;;4.73;3.90;;;;;;;;;;5028299;28;20266;-54
2022/10/20 05:38:52;;;;;;;6.00;4.40;;;;;;;;;;5030396;28;20210;-54
2022/10/20 05:41:21;;;;;;;4.60;3.63;;;;;;;;;;5032088;28;20201;-53
2022/10/20 05:43:49;;;;;;;3.83;3.43;;;;;;;;;;5030393;28;20286;-56
2022/10/20 05:46:16;;;;;;;3.30;2.80;;;;;;;;;;5029768;28;20590;-56
2022/10/20 05:48:43;;;;;;;6.77;4.90;;;;;;;;;;5032083;28;20223;-52
2022/10/20 05:51:18;;;;;;;6.20;4.37;;;;;;;;;;5031841;28;20195;-55
2022/10/20 05:53:45;;;;;;;5.00;3.80;;;;;;;;;;5030445;28;20309;-53
2022/10/20 05:56:15;;;;;;;5.13;3.63;;;;;;;;;;5013807;28;20202;-54
2022/10/20 05:58:42;;;;;;;3.50;2.90;;;;;;;;;;5030398;28;20286;-52
2022/10/20 06:01:22;;;;;;;4.80;3.60;;;;;;;;;;5027927;28;20295;-54
2022/10/20 06:03:53;;;;;;;4.50;3.67;;;;;;;;;;5028554;28;20215;-55
2022/10/20 06:06:22;;;;;;;5.07;3.90;;;;;;;;;;5032203;28;20773;-55
2022/10/20 06:08:49;;;;;;;6.13;3.80;;;;;;;;;;5031346;28;20291;-57
2022/10/20 06:11:17;;;;;;;4.93;4.43;;;;;;;;;;5030991;28;20233;-56
2022/10/20 06:13:44;;;;;;;6.70;4.63;;;;;;;;;;5029294;28;20286;-55
2022/10/20 06:16:22;;;;;;;3.47;2.80;;;;;;;;;;5030200;28;20716;-58
2022/10/20 06:18:49;;;;;;;5.30;3.50;;;;;;;;;;5030235;28;20282;-54
2022/10/20 06:21:27;;;;;;;5.20;3.60;;;;;;;;;;5026281;28;20283;-56
2022/10/20 06:23:54;;;;;;;4.47;2.90;;;;;;;;;;5031066;28;20297;-57
2022/10/20 06:26:23;;;;;;;3.20;2.67;;;;;;;;;;5031054;28;20311;-55
2022/10/20 06:28:54;;;;;;;2.93;2.63;;;;;;;;;;5031848;28;20200;-55
2022/10/20 06:31:28;;;;;;;2.50;2.27;;;;;;;;;;5021160;28;20671;-56
2022/10/20 06:33:55;;;;;;;2.60;2.40;;;;;;;;;;5011184;28;20315;-52
2022/10/20 06:36:22;;;;;;;3.93;2.67;;;;;;;;;;5029932;28;20219;-55
2022/10/20 06:38:53;;;;;;;3.10;2.63;;;;;;;;;;5004437;28;20291;-53
2022/10/20 06:41:20;;;;;;;4.60;3.43;;;;;;;;;;5028693;28;20290;-52
2022/10/20 06:43:46;;;;;;;10.97;4.67;;;;;;;;;;5017206;28;20330;-55
2022/10/20 06:46:16;;;;;;;6.70;5.13;;;;;;;;;;5029049;28;20302;-52
2022/10/20 06:48:43;;;;;;;10.23;5.37;;;;;;;;;;5027324;28;20283;-54
2022/10/20 06:51:12;;;;;;;9.33;5.90;;;;;;;;;;5027510;28;20751;-55
2022/10/20 06:53:39;;;;;;;10.83;5.90;;;;;;;;;;5030386;28;20273;-56
2022/10/20 06:56:13;;;;;;;8.37;5.93;;;;;;;;;;5027946;28;20206;-53
2022/10/20 06:58:41;;;;;;;9.27;5.77;;;;;;;;;;5027247;28;20582;-55
2022/10/20 07:01:11;;;;;;;10.27;5.80;;;;;;;;;;5020688;28;20207;-52
2022/10/20 07:03:38;;;;;;;10.03;6.10;;;;;;;;;;5024783;28;20269;-52
2022/10/20 07:06:05;;;;;;;10.20;5.83;;;;;;;;;;5024810;28;20299;-51
2022/10/20 07:08:33;;;;;;;8.27;5.40;;;;;;;;;;5028195;28;20738;-52
2022/10/20 07:11:12;;;;;;;12.93;6.00;;;;;;;;;;5030367;28;20210;-55
2022/10/20 07:13:39;;;;;;;10.83;5.70;;;;;;;;;;5028306;28;20302;-52
2022/10/20 07:16:07;;;;;;;7.30;5.13;;;;;;;;;;5019717;28;20282;-51
2022/10/20 07:18:34;;;;;;;7.20;4.90;;;;;;;;;;5026355;28;20287;-52
2022/10/20 07:21:05;;;;;;;8.57;5.63;;;;;;;;;;5022482;28;20208;-52
2022/10/20 07:23:32;;;;;;;12.20;6.07;;;;;;;;;;5025024;28;20306;-50
2022/10/20 07:26:00;;;;;;;8.17;5.40;;;;;;;;;;5026610;28;20662;-50
2022/10/20 07:28:27;;;;;;;11.87;4.70;;;;;;;;;;5028153;28;20630;-54
2022/10/20 07:30:53;;;;;;;10.20;5.27;;;;;;;;;;5023831;28;20286;-55
2022/10/20 07:33:20;;;;;;;6.67;5.03;;;;;;;;;;5023911;28;20219;-52
2022/10/20 07:35:47;;;;;;;6.87;4.77;;;;;;;;;;5027043;28;21746;-53
2022/10/20 07:38:13;;;;;;;7.63;4.60;;;;;;;;;;5027269;28;20286;-52
2022/10/20 07:40:39;;;;;;;10.90;4.67;;;;;;;;;;5025347;28;20292;-50
2022/10/20 07:43:06;;;;;;;7.17;5.27;;;;;;;;;;5023422;28;20251;-53
2022/10/20 07:45:32;;;;;;;9.87;5.63;;;;;;;;;;5008928;28;20294;-53
2022/10/20 07:47:59;;;;;;;7.83;5.10;;;;;;;;;;5026761;28;20231;-50
2022/10/20 07:50:25;;;;;;;8.53;5.40;;;;;;;;;;5024533;28;20294;-50
2022/10/20 07:52:52;;;;;;;6.83;5.13;;;;;;;;;;5024119;28;20770;-52
2022/10/20 07:55:19;;;;;;;8.53;5.60;;;;;;;;;;5024779;28;20196;-51
2022/10/20 07:58:04;;;;;;;5.90;4.63;;;;;;;;;;5026454;28;20253;-50
2022/10/20 08:00:30;;;;;;;10.43;4.27;;;;;;;;;;5006716;28;20286;-54
2022/10/20 08:02:56;;;;;;;23.73;12.33;;;;;;;;;;5024342;28;20211;-51
2022/10/20 08:05:23;;;;;;;29.10;13.47;;;;;;;;;;5026252;28;20234;-49
2022/10/20 08:10:57;;;;;;;41.10;14.93;;;;;;;;;;5137655;27;20530;-56
2022/10/20 08:15:17;;;;;;;41.17;15.23;;;;;;;;;;5048937;28;20388;-59
2022/10/20 08:17:49;;;;;;;40.50;15.63;;;;;;;;;;5045911;28;20204;-55
2022/10/20 08:30:52;;;;;;;39.28;15.27;;;;;;;;;;4888917;27;55607;-54
2022/10/20 08:34:45;;;;;;;40.37;15.00;;;;;;;;;;4794025;27;57062;-51
2022/10/20 08:38:15;;;;;;;23.83;10.93;;;;;;;;;;4985997;28;20425;-54
2022/10/20 08:40:41;;;;;;;19.00;10.50;;;;;;;;;;5029033;28;20681;-50
2022/10/20 08:43:18;;;;;;;20.80;10.27;;;;;;;;;;5019593;28;20755;-57
2022/10/20 08:45:44;;;;;;;19.27;8.70;;;;;;;;;;5023372;28;20278;-51
2022/10/20 08:48:15;;;;;;;12.87;8.93;;;;;;;;;;5022880;28;20279;-56
2022/10/20 08:50:43;;;;;;;16.27;8.93;;;;;;;;;;4958203;28;20243;-48
2022/10/20 08:53:10;;;;;;;14.87;8.27;;;;;;;;;;5017012;28;20306;-54
2022/10/20 08:55:37;;;;;;;11.63;7.75;;;;;;;;;;5014673;28;20228;-51
2022/10/20 08:58:11;;;;;;;14.57;8.57;;;;;;;;;;5009374;28;20212;-52
2022/10/20 09:00:38;;;;;;;15.05;8.50;;;;;;;;;;5013617;28;20439;-52
2022/10/20 09:03:13;;;;;;;14.73;8.70;;;;;;;;;;5013025;28;20651;-55
2022/10/20 09:05:41;;;;;;;15.10;7.73;;;;;;;;;;5009629;28;20298;-51
2022/10/20 09:08:07;;;;;;;13.13;8.20;;;;;;;;;;5008855;28;20651;-50
2022/10/20 09:10:35;;;;;;;12.57;7.90;;;;;;;;;;5014196;28;20879;-49
2022/10/20 09:13:02;;;;;;;13.47;7.73;;;;;;;;;;5013785;28;20327;-49
2022/10/20 09:15:28;;;;;;;14.10;8.33;;;;;;;;;;5005562;28;20303;-54
2022/10/20 09:17:59;;;;;;;14.67;8.77;;;;;;;;;;5007654;28;20306;-51
2022/10/20 09:20:44;;;;;;;12.67;8.07;;;;;;;;;;5006108;28;20636;-49
2022/10/20 09:23:17;;;;;;;12.57;7.57;;;;;;;;;;4950134;28;54002;-51
2022/10/20 09:29:11;;;;;;;12.00;8.10;;;;;;;;;;5077440;28;20331;-51
2022/10/20 09:31:41;;;;;;;14.97;7.03;;;;;;;;;;5008714;28;20671;-50
2022/10/20 09:42:34;;;;;;;19.07;8.50;;;;;;;;;;5132404;27;20532;-48
2022/10/20 09:45:11;;;;;;;11.70;7.37;;;;;;;;;;5099453;28;20200;-52
2022/10/20 09:47:41;;;;;;;12.47;7.93;;;;;;;;;;5121183;27;20288;-52
2022/10/20 09:50:17;;;;;;;17.27;8.83;;;;;;;;;;5104257;28;20201;-50
2022/10/20 09:52:46;;;;;;;21.30;8.20;;;;;;;;;;5055023;27;20224;-49
2022/10/20 09:55:25;;;;;;;14.23;8.07;;;;;;;;;;5086083;28;20217;-47
2022/10/20 09:57:53;;;;;;;17.90;8.20;;;;;;;;;;5082331;28;20193;-46
2022/10/20 10:00:27;;;;;;;19.97;9.27;;;;;;;;;;5083162;28;20288;-46
2022/10/20 10:03:19;;;;;;;14.90;9.30;;;;;;;;;;5077236;28;20233;-49
2022/10/20 10:05:48;;;;;;;13.93;8.30;;;;;;;;;;5080605;28;20232;-49
2022/10/20 10:08:16;;;;;;;15.37;9.07;;;;;;;;;;5083127;28;20637;-48
2022/10/20 10:10:44;;;;;;;14.37;8.83;;;;;;;;;;5084009;28;20198;-47
2022/10/20 10:13:23;;;;;;;13.67;9.23;;;;;;;;;;5077978;28;20275;-46
2022/10/20 10:16:05;;;;;;;13.70;8.47;;;;;;;;;;5081237;28;22398;-49
2022/10/20 10:18:33;;;;;;;19.83;8.87;;;;;;;;;;5082745;28;20646;-45
2022/10/20 10:21:03;;;;;;;10.17;6.80;;;;;;;;;;5081501;28;20329;-48
2022/10/20 10:23:32;;;;;;;8.10;5.70;;;;;;;;;;5084407;28;20304;-48
2022/10/20 10:25:59;;;;;;;12.00;6.57;;;;;;;;;;5084668;28;20280;-47
2022/10/20 10:28:32;;;;;;;12.53;7.70;;;;;;;;;;5086238;28;20292;-48
2022/10/20 10:31:23;;;;;;;11.83;7.50;;;;;;;;;;5086697;28;20778;-46
2022/10/20 10:33:52;;;;;;;10.97;7.13;;;;;;;;;;5084395;28;20225;-48
2022/10/20 10:36:35;;;;;;;10.70;6.00;;;;;;;;;;5086749;28;20285;-50
2022/10/20 10:39:04;;;;;;;9.57;6.03;;;;;;;;;;5083397;28;20284;-47
2022/10/20 10:42:03;;;;;;;11.30;6.57;;;;;;;;;;5084993;28;20563;-48
2022/10/20 10:44:54;;;;;;;9.53;5.03;;;;;;;;;;5074392;28;20683;-51
2022/10/20 10:47:37;;;;;;;10.40;5.00;;;;;;;;;;5093648;28;20693;-50
2022/10/20 10:50:24;;;;;;;9.63;5.33;;;;;;;;;;5090582;28;20250;-48
2022/10/20 10:53:12;;;;;;;11.20;5.20;;;;;;;;;;5080826;28;20244;-45
2022/10/20 10:55:49;;;;;;;9.03;6.50;;;;;;;;;;5080739;28;20673;-48
2022/10/20 10:58:38;;;;;;;9.30;5.93;;;;;;;;;;5074180;28;20303;-49
2022/10/20 11:01:04;;;;;;;8.80;6.03;;;;;;;;;;5074851;28;20297;-48
2022/10/20 11:03:41;;;;;;;11.20;5.20;;;;;;;;;;5079777;28;20218;-49
2022/10/20 11:06:29;;;;;;;6.97;4.70;;;;;;;;;;5076497;28;20293;-49
2022/10/20 11:09:02;;;;;;;9.87;5.20;;;;;;;;;;5075638;28;20344;-47
2022/10/20 11:11:40;;;;;;;12.33;5.40;;;;;;;;;;5075325;28;20293;-48
2022/10/20 11:14:51;;;;;;;8.93;5.37;;;;;;;;;;5073676;28;20194;-48
2022/10/20 11:17:36;;;;;;;9.50;5.50;;;;;;;;;;5074620;28;20233;-47
2022/10/20 11:20:23;;;;;;;8.87;5.80;;;;;;;;;;5075464;28;20195;-49
2022/10/20 11:23:18;;;;;;;10.03;5.73;;;;;;;;;;5074318;28;20772;-47
2022/10/20 11:25:51;;;;;;;9.60;7.03;;;;;;;;;;5075143;28;20409;-51
2022/10/20 11:28:26;;;;;;;12.70;6.90;;;;;;;;;;5075947;28;20288;-49
2022/10/20 11:30:52;;;;;;;10.43;6.97;;;;;;;;;;5078448;28;20360;-46
2022/10/20 11:33:22;;;;;;;9.33;4.83;;;;;;;;;;5075387;28;20776;-50
2022/10/20 11:36:18;;;;;;;8.97;5.30;;;;;;;;;;5073808;28;20658;-47
2022/10/20 11:38:49;;;;;;;7.63;5.47;;;;;;;;;;5067360;28;20289;-47
2022/10/20 11:41:39;;;;;;;9.77;5.67;;;;;;;;;;5072586;28;20301;-49
2022/10/20 11:44:51;;;;;;;9.33;6.20;;;;;;;;;;5075077;28;20708;-50
2022/10/20 11:47:21;;;;;;;9.10;5.23;;;;;;;;;;5070457;28;20701;-49
2022/10/20 11:49:48;;;;;;;8.53;4.70;;;;;;;;;;5101987;28;20281;-49
2022/10/20 11:52:40;;;;;;;6.60;4.80;;;;;;;;;;5075672;28;20297;-48
2022/10/20 11:55:33;;;;;;;5.93;4.50;;;;;;;;;;5066900;28;20191;-49
2022/10/20 11:58:09;;;;;;;7.33;5.43;;;;;;;;;;5074660;28;20217;-47
2022/10/20 12:01:17;;;;;;;6.70;4.37;;;;;;;;;;5077931;28;20481;-48
2022/10/20 12:03:58;;;;;;;6.80;4.63;;;;;;;;;;5072718;28;20228;-48
2022/10/20 12:06:49;;;;;;;6.83;4.80;;;;;;;;;;5072914;28;20289;-48
2022/10/20 12:09:34;;;;;;;5.87;4.50;;;;;;;;;;5073324;28;20200;-48
2022/10/20 12:12:04;;;;;;;5.97;4.20;;;;;;;;;;5069173;28;20209;-47
2022/10/20 12:14:41;;;;;;;7.73;4.97;;;;;;;;;;5073741;28;20230;-48
2022/10/20 12:17:19;;;;;;;6.67;4.43;;;;;;;;;;5075301;28;20280;-48
2022/10/20 12:19:51;;;;;;;6.30;4.70;;;;;;;;;;5068760;28;20288;-48
2022/10/20 12:22:17;;;;;;;8.57;5.17;;;;;;;;;;5071406;28;20232;-47
2022/10/20 12:24:49;;;;;;;6.03;4.80;;;;;;;;;;5076988;28;20284;-50
2022/10/20 12:27:19;;;;;;;8.73;5.30;;;;;;;;;;5074742;28;20662;-48
2022/10/20 12:29:48;;;;;;;6.63;4.97;;;;;;;;;;5068842;28;20634;-47
2022/10/20 12:32:33;;;;;;;7.03;5.00;;;;;;;;;;5074307;28;20300;-48
2022/10/20 12:35:10;;;;;;;7.80;5.53;;;;;;;;;;5074621;28;20221;-48
2022/10/20 12:37:37;;;;;;;6.47;5.00;;;;;;;;;;5075105;28;20745;-47
2022/10/20 12:40:14;;;;;;;6.47;4.80;;;;;;;;;;5068234;28;20194;-48
2022/10/20 12:42:46;;;;;;;8.10;4.40;;;;;;;;;;5075695;28;20226;-48
2022/10/20 12:45:36;;;;;;;7.33;5.10;;;;;;;;;;5071309;28;20194;-50
2022/10/20 12:48:05;;;;;;;5.80;4.40;;;;;;;;;;5066097;28;20298;-51
2022/10/20 12:50:42;;;;;;;6.53;4.30;;;;;;;;;;5072181;28;20388;-48
2022/10/20 12:53:27;;;;;;;7.97;4.80;;;;;;;;;;5073511;28;20693;-47
2022/10/20 12:56:06;;;;;;;7.00;4.20;;;;;;;;;;5067913;28;20280;-48
2022/10/20 12:59:07;;;;;;;7.60;5.67;;;;;;;;;;5075573;28;20288;-47
2022/10/20 13:02:18;;;;;;;6.13;5.07;;;;;;;;;;5074951;28;20305;-50
2022/10/20 13:04:59;;;;;;;5.13;4.13;;;;;;;;;;5054968;28;20621;-49
2022/10/20 13:07:47;;;;;;;5.83;4.47;;;;;;;;;;5073893;28;20713;-50
2022/10/20 13:10:26;;;;;;;6.20;4.90;;;;;;;;;;5073884;28;20374;-53
2022/10/20 13:12:53;;;;;;;5.67;4.17;;;;;;;;;;5068766;28;20300;-48
2022/10/20 13:15:21;;;;;;;6.60;4.70;;;;;;;;;;5070419;28;20281;-48
2022/10/20 13:17:52;;;;;;;6.60;4.77;;;;;;;;;;5074850;28;20221;-49
2022/10/20 13:20:41;;;;;;;5.90;4.50;;;;;;;;;;5069686;28;20286;-48
2022/10/20 13:23:11;;;;;;;7.50;4.40;;;;;;;;;;5067084;28;20766;-48
2022/10/20 13:25:41;;;;;;;6.67;4.73;;;;;;;;;;5071783;28;20285;-48
2022/10/20 13:28:22;;;;;;;4.87;3.90;;;;;;;;;;5072305;28;20289;-49
2022/10/20 13:30:51;;;;;;;6.57;4.83;;;;;;;;;;5074531;28;20284;-48
2022/10/20 13:33:24;;;;;;;6.47;4.20;;;;;;;;;;5072458;28;20674;-48
2022/10/20 13:36:21;;;;;;;4.30;3.70;;;;;;;;;;5070189;28;20276;-48
2022/10/20 13:39:01;;;;;;;5.30;4.17;;;;;;;;;;5069202;28;20280;-51
2022/10/20 13:41:47;;;;;;;5.93;4.40;;;;;;;;;;5069838;28;20221;-48
2022/10/20 13:44:21;;;;;;;4.93;4.03;;;;;;;;;;5068391;28;20300;-48
2022/10/20 13:47:01;;;;;;;5.70;4.20;;;;;;;;;;5069009;28;20193;-49
2022/10/20 13:49:43;;;;;;;7.33;5.20;;;;;;;;;;5068686;28;20284;-51
2022/10/20 13:52:13;;;;;;;5.57;4.10;;;;;;;;;;5072357;28;20238;-50
2022/10/20 13:54:43;;;;;;;6.30;4.17;;;;;;;;;;5071266;28;20294;-51
2022/10/20 13:57:27;;;;;;;6.40;4.27;;;;;;;;;;5067849;28;20225;-49
2022/10/20 13:59:55;;;;;;;7.20;4.47;;;;;;;;;;5073139;28;20223;-48
2022/10/20 14:02:24;;;;;;;8.73;5.10;;;;;;;;;;5072097;28;20288;-48
2022/10/20 14:05:01;;;;;;;4.90;3.80;;;;;;;;;;5067197;28;20201;-47
2022/10/20 14:07:36;;;;;;;5.73;4.20;;;;;;;;;;5072230;28;20224;-48
2022/10/20 14:10:03;;;;;;;4.90;3.47;;;;;;;;;;5071932;28;20289;-48
2022/10/20 14:12:30;;;;;;;8.03;5.23;;;;;;;;;;5066834;28;20309;-48
2022/10/20 14:14:57;;;;;;;5.70;4.00;;;;;;;;;;5071163;28;20280;-49
2022/10/20 14:17:27;;;;;;;7.30;4.20;;;;;;;;;;5069409;28;20323;-48
2022/10/20 14:20:33;;;;;;;5.50;3.87;;;;;;;;;;5072446;28;20725;-48
2022/10/20 14:23:01;;;;;;;4.93;3.80;;;;;;;;;;5005416;28;20302;-48
2022/10/20 14:25:27;;;;;;;7.13;4.10;;;;;;;;;;5006792;28;20200;-50
2022/10/20 14:27:55;;;;;;;7.60;5.30;;;;;;;;;;5029025;28;20285;-48
2022/10/20 14:30:22;;;;;;;5.40;3.90;;;;;;;;;;5071196;28;20221;-48
2022/10/20 14:32:49;;;;;;;4.67;3.80;;;;;;;;;;5073326;28;20296;-48
2022/10/20 14:35:18;;;;;;;5.33;4.07;;;;;;;;;;5075004;28;20277;-48
2022/10/20 14:37:51;;;;;;;5.87;3.87;;;;;;;;;;5076058;28;20293;-49
2022/10/20 14:40:23;;;;;;;6.80;3.77;;;;;;;;;;5070345;28;20747;-48
2022/10/20 14:42:49;;;;;;;7.00;4.70;;;;;;;;;;5074057;28;20304;-49
2022/10/20 14:45:24;;;;;;;6.13;4.03;;;;;;;;;;5074521;28;20284;-49
2022/10/20 14:47:51;;;;;;;5.87;3.80;;;;;;;;;;5075637;28;20193;-51
2022/10/20 14:50:20;;;;;;;6.03;4.20;;;;;;;;;;5072248;28;20285;-48
2022/10/20 14:52:46;;;;;;;5.20;3.60;;;;;;;;;;5072654;28;20738;-48
2022/10/20 14:55:26;;;;;;;4.63;3.80;;;;;;;;;;5072395;28;20473;-51
2022/10/20 14:57:53;;;;;;;4.87;3.67;;;;;;;;;;5073704;28;20744;-51
2022/10/20 15:00:26;;;;;;;4.33;3.70;;;;;;;;;;5074540;28;20638;-51
2022/10/20 15:02:57;;;;;;;4.00;3.30;;;;;;;;;;5074658;28;20698;-48
2022/10/20 15:05:36;;;;;;;5.37;3.70;;;;;;;;;;5070913;28;20225;-50
2022/10/20 15:08:16;;;;;;;6.17;3.73;;;;;;;;;;5067138;28;20284;-48
2022/10/20 15:10:43;;;;;;;5.00;4.00;;;;;;;;;;5074737;28;20320;-48
2022/10/20 15:13:20;;;;;;;4.67;3.77;;;;;;;;;;5070506;28;20368;-48
2022/10/20 15:15:52;;;;;;;6.43;5.10;;;;;;;;;;5074185;28;20549;-51
2022/10/20 15:18:19;;;;;;;6.27;4.43;;;;;;;;;;5073726;28;20281;-51
2022/10/20 15:20:47;;;;;;;5.53;3.80;;;;;;;;;;5073895;28;20625;-51
2022/10/20 15:23:26;;;;;;;4.30;3.67;;;;;;;;;;5069453;28;20275;-48
2022/10/20 15:26:09;;;;;;;5.10;3.73;;;;;;;;;;5074088;28;20285;-50
2022/10/20 15:28:44;;;;;;;3.57;3.23;;;;;;;;;;5071995;28;20288;-49
2022/10/20 15:31:22;;;;;;;6.20;4.60;;;;;;;;;;5071087;28;20697;-50
2022/10/20 15:33:49;;;;;;;5.07;3.80;;;;;;;;;;5071761;28;20198;-51
2022/10/20 15:36:20;;;;;;;4.10;3.60;;;;;;;;;;5073181;28;20285;-45
2022/10/20 15:38:48;;;;;;;4.03;3.43;;;;;;;;;;5072484;28;20229;-51
2022/10/20 15:41:22;;;;;;;5.03;3.67;;;;;;;;;;5066865;28;20737;-51